sensor_id;sensor_type;location;lat;lon;timestamp;P1;durP1;ratioP1;P2;durP2;ratioP2
63284;SDS011;49409;55.708;37.522;2022-07-21T00:00:53;0.77;;;0.60;;
63284;SDS011;49409;55.708;37.522;2022-07-21T00:03:19;1.15;;;0.82;;
63284;SDS011;49409;55.708;37.522;2022-07-21T00:05:45;0.85;;;0.60;;
63284;SDS011;49409;55.708;37.522;2022-07-21T00:08:11;0.70;;;0.70;;
63284;SDS011;49409;55.708;37.522;2022-07-21T00:10:38;1.52;;;0.60;;
63284;SDS011;49409;55.708;37.522;2022-07-21T00:13:04;0.90;;;0.60;;
63284;SDS011;49409;55.708;37.522;2022-07-21T00:15:30;0.60;;;0.60;;
63284;SDS011;49409;55.708;37.522;2022-07-21T00:17:56;0.98;;;0.63;;
63284;SDS011;49409;55.708;37.522;2022-07-21T00:20:23;1.15;;;0.85;;
63284;SDS011;49409;55.708;37.522;2022-07-21T00:22:49;0.60;;;0.60;;
63284;SDS011;49409;55.708;37.522;2022-07-21T00:25:14;1.75;;;0.70;;
63284;SDS011;49409;55.708;37.522;2022-07-21T00:27:41;1.40;;;0.90;;
63284;SDS011;49409;55.708;37.522;2022-07-21T00:30:08;0.77;;;0.60;;
63284;SDS011;49409;55.708;37.522;2022-07-21T00:32:34;0.55;;;0.50;;
63284;SDS011;49409;55.708;37.522;2022-07-21T00:35:00;1.77;;;0.70;;
63284;SDS011;49409;55.708;37.522;2022-07-21T00:37:27;0.88;;;0.60;;
63284;SDS011;49409;55.708;37.522;2022-07-21T00:39:53;1.23;;;0.70;;
63284;SDS011;49409;55.708;37.522;2022-07-21T00:42:23;0.70;;;0.60;;
63284;SDS011;49409;55.708;37.522;2022-07-21T00:44:50;1.23;;;0.80;;
63284;SDS011;49409;55.708;37.522;2022-07-21T00:47:18;1.23;;;0.63;;
63284;SDS011;49409;55.708;37.522;2022-07-21T00:49:45;0.75;;;0.50;;
63284;SDS011;49409;55.708;37.522;2022-07-21T00:52:11;0.73;;;0.73;;
63284;SDS011;49409;55.708;37.522;2022-07-21T00:54:36;0.73;;;0.63;;
63284;SDS011;49409;55.708;37.522;2022-07-21T00:57:02;1.35;;;0.70;;
63284;SDS011;49409;55.708;37.522;2022-07-21T00:59:29;0.88;;;0.70;;
63284;SDS011;49409;55.708;37.522;2022-07-21T01:01:55;1.65;;;0.70;;
63284;SDS011;49409;55.708;37.522;2022-07-21T01:04:21;1.00;;;0.93;;
63284;SDS011;49409;55.708;37.522;2022-07-21T01:06:47;0.85;;;0.85;;
63284;SDS011;49409;55.708;37.522;2022-07-21T01:09:13;1.17;;;0.50;;
63284;SDS011;49409;55.708;37.522;2022-07-21T01:11:39;1.45;;;1.30;;
63284;SDS011;49409;55.708;37.522;2022-07-21T01:14:06;1.50;;;0.90;;
63284;SDS011;49409;55.708;37.522;2022-07-21T01:16:32;0.90;;;0.70;;
63284;SDS011;49409;55.708;37.522;2022-07-21T01:18:58;1.05;;;0.70;;
63284;SDS011;49409;55.708;37.522;2022-07-21T01:21:31;1.85;;;0.80;;
63284;SDS011;49409;55.708;37.522;2022-07-21T01:23:58;2.15;;;0.77;;
63284;SDS011;49409;55.708;37.522;2022-07-21T01:26:25;1.15;;;0.80;;
63284;SDS011;49409;55.708;37.522;2022-07-21T01:28:51;1.25;;;0.68;;
63284;SDS011;49409;55.708;37.522;2022-07-21T01:31:17;2.05;;;0.95;;
63284;SDS011;49409;55.708;37.522;2022-07-21T01:33:43;1.33;;;0.80;;
63284;SDS011;49409;55.708;37.522;2022-07-21T01:36:09;1.58;;;0.65;;
63284;SDS011;49409;55.708;37.522;2022-07-21T01:38:35;0.88;;;0.68;;
63284;SDS011;49409;55.708;37.522;2022-07-21T01:41:19;1.88;;;1.08;;
63284;SDS011;49409;55.708;37.522;2022-07-21T01:44:04;2.30;;;0.80;;
63284;SDS011;49409;55.708;37.522;2022-07-21T01:46:34;1.75;;;1.08;;
63284;SDS011;49409;55.708;37.522;2022-07-21T01:49:02;0.82;;;0.82;;
63284;SDS011;49409;55.708;37.522;2022-07-21T01:51:29;2.03;;;0.77;;
63284;SDS011;49409;55.708;37.522;2022-07-21T01:53:55;2.25;;;1.00;;
63284;SDS011;49409;55.708;37.522;2022-07-21T01:56:21;1.17;;;0.80;;
63284;SDS011;49409;55.708;37.522;2022-07-21T01:58:50;0.68;;;0.65;;
63284;SDS011;49409;55.708;37.522;2022-07-21T02:01:18;3.40;;;1.00;;
63284;SDS011;49409;55.708;37.522;2022-07-21T02:03:45;1.67;;;0.85;;
63284;SDS011;49409;55.708;37.522;2022-07-21T02:06:11;3.50;;;1.30;;
63284;SDS011;49409;55.708;37.522;2022-07-21T02:08:38;3.60;;;1.02;;
63284;SDS011;49409;55.708;37.522;2022-07-21T02:11:04;2.00;;;1.25;;
63284;SDS011;49409;55.708;37.522;2022-07-21T02:13:31;2.17;;;1.05;;
63284;SDS011;49409;55.708;37.522;2022-07-21T02:15:57;2.28;;;1.17;;
63284;SDS011;49409;55.708;37.522;2022-07-21T02:18:23;2.25;;;1.20;;
63284;SDS011;49409;55.708;37.522;2022-07-21T02:20:48;1.65;;;1.15;;
63284;SDS011;49409;55.708;37.522;2022-07-21T02:23:15;3.40;;;1.27;;
63284;SDS011;49409;55.708;37.522;2022-07-21T02:25:44;3.33;;;1.15;;
63284;SDS011;49409;55.708;37.522;2022-07-21T02:28:09;2.38;;;1.40;;
63284;SDS011;49409;55.708;37.522;2022-07-21T02:30:35;2.95;;;1.50;;
63284;SDS011;49409;55.708;37.522;2022-07-21T02:33:01;2.25;;;0.98;;
63284;SDS011;49409;55.708;37.522;2022-07-21T02:35:27;2.35;;;1.20;;
63284;SDS011;49409;55.708;37.522;2022-07-21T02:37:53;1.88;;;1.40;;
63284;SDS011;49409;55.708;37.522;2022-07-21T02:40:18;2.42;;;1.15;;
63284;SDS011;49409;55.708;37.522;2022-07-21T02:42:44;2.13;;;1.27;;
63284;SDS011;49409;55.708;37.522;2022-07-21T02:45:10;2.25;;;1.27;;
63284;SDS011;49409;55.708;37.522;2022-07-21T02:47:52;1.42;;;0.77;;
63284;SDS011;49409;55.708;37.522;2022-07-21T02:50:22;3.20;;;1.10;;
63284;SDS011;49409;55.708;37.522;2022-07-21T02:52:50;1.75;;;0.95;;
63284;SDS011;49409;55.708;37.522;2022-07-21T02:55:18;2.50;;;1.15;;
63284;SDS011;49409;55.708;37.522;2022-07-21T02:57:44;1.35;;;1.02;;
63284;SDS011;49409;55.708;37.522;2022-07-21T03:00:09;1.38;;;0.90;;
63284;SDS011;49409;55.708;37.522;2022-07-21T03:02:35;1.70;;;1.20;;
63284;SDS011;49409;55.708;37.522;2022-07-21T03:05:01;1.92;;;1.23;;
63284;SDS011;49409;55.708;37.522;2022-07-21T03:07:28;2.20;;;1.27;;
63284;SDS011;49409;55.708;37.522;2022-07-21T03:09:53;1.20;;;1.10;;
63284;SDS011;49409;55.708;37.522;2022-07-21T03:12:19;2.33;;;1.08;;
63284;SDS011;49409;55.708;37.522;2022-07-21T03:14:45;2.90;;;1.38;;
63284;SDS011;49409;55.708;37.522;2022-07-21T03:17:10;1.30;;;1.20;;
63284;SDS011;49409;55.708;37.522;2022-07-21T03:19:36;3.10;;;1.20;;
63284;SDS011;49409;55.708;37.522;2022-07-21T03:22:01;3.60;;;1.35;;
63284;SDS011;49409;55.708;37.522;2022-07-21T03:24:27;1.77;;;1.20;;
63284;SDS011;49409;55.708;37.522;2022-07-21T03:26:54;2.50;;;1.20;;
63284;SDS011;49409;55.708;37.522;2022-07-21T03:29:21;3.25;;;1.27;;
63284;SDS011;49409;55.708;37.522;2022-07-21T03:31:46;2.08;;;1.15;;
63284;SDS011;49409;55.708;37.522;2022-07-21T03:34:12;1.92;;;1.10;;
63284;SDS011;49409;55.708;37.522;2022-07-21T03:36:38;1.42;;;1.10;;
63284;SDS011;49409;55.708;37.522;2022-07-21T03:39:03;1.05;;;0.95;;
63284;SDS011;49409;55.708;37.522;2022-07-21T03:41:29;1.85;;;1.08;;
63284;SDS011;49409;55.708;37.522;2022-07-21T03:43:54;3.20;;;1.30;;
63284;SDS011;49409;55.708;37.522;2022-07-21T03:46:20;0.75;;;0.70;;
63284;SDS011;49409;55.708;37.522;2022-07-21T03:48:45;2.10;;;1.08;;
63284;SDS011;49409;55.708;37.522;2022-07-21T03:51:11;2.15;;;1.23;;
63284;SDS011;49409;55.708;37.522;2022-07-21T03:53:36;1.42;;;1.20;;
63284;SDS011;49409;55.708;37.522;2022-07-21T03:56:02;3.28;;;1.10;;
63284;SDS011;49409;55.708;37.522;2022-07-21T03:58:27;1.25;;;0.95;;
63284;SDS011;49409;55.708;37.522;2022-07-21T04:00:53;1.10;;;0.80;;
63284;SDS011;49409;55.708;37.522;2022-07-21T04:03:19;2.63;;;1.00;;
63284;SDS011;49409;55.708;37.522;2022-07-21T04:05:44;1.40;;;0.73;;
63284;SDS011;49409;55.708;37.522;2022-07-21T04:08:10;1.42;;;0.75;;
63284;SDS011;49409;55.708;37.522;2022-07-21T04:10:38;1.63;;;1.10;;
63284;SDS011;49409;55.708;37.522;2022-07-21T04:13:06;2.35;;;1.20;;
63284;SDS011;49409;55.708;37.522;2022-07-21T04:15:34;2.50;;;1.17;;
63284;SDS011;49409;55.708;37.522;2022-07-21T04:18:00;1.08;;;0.88;;
63284;SDS011;49409;55.708;37.522;2022-07-21T04:20:26;2.45;;;1.40;;
63284;SDS011;49409;55.708;37.522;2022-07-21T04:22:52;1.40;;;1.27;;
63284;SDS011;49409;55.708;37.522;2022-07-21T04:25:19;2.60;;;1.27;;
63284;SDS011;49409;55.708;37.522;2022-07-21T04:27:45;2.17;;;1.40;;
63284;SDS011;49409;55.708;37.522;2022-07-21T04:30:13;3.03;;;1.38;;
63284;SDS011;49409;55.708;37.522;2022-07-21T04:32:40;1.60;;;1.23;;
63284;SDS011;49409;55.708;37.522;2022-07-21T04:35:06;3.22;;;1.60;;
63284;SDS011;49409;55.708;37.522;2022-07-21T04:37:32;2.78;;;1.60;;
63284;SDS011;49409;55.708;37.522;2022-07-21T04:39:58;4.72;;;1.73;;
63284;SDS011;49409;55.708;37.522;2022-07-21T04:42:24;2.70;;;1.63;;
63284;SDS011;49409;55.708;37.522;2022-07-21T04:44:49;3.25;;;1.70;;
63284;SDS011;49409;55.708;37.522;2022-07-21T04:47:15;2.97;;;1.80;;
63284;SDS011;49409;55.708;37.522;2022-07-21T04:49:41;2.40;;;1.60;;
63284;SDS011;49409;55.708;37.522;2022-07-21T04:52:06;3.83;;;1.73;;
63284;SDS011;49409;55.708;37.522;2022-07-21T04:54:32;3.63;;;1.92;;
63284;SDS011;49409;55.708;37.522;2022-07-21T04:56:57;2.63;;;1.42;;
63284;SDS011;49409;55.708;37.522;2022-07-21T04:59:24;3.80;;;1.90;;
63284;SDS011;49409;55.708;37.522;2022-07-21T05:01:50;2.65;;;1.85;;
63284;SDS011;49409;55.708;37.522;2022-07-21T05:04:15;2.42;;;1.50;;
63284;SDS011;49409;55.708;37.522;2022-07-21T05:06:41;3.65;;;1.70;;
63284;SDS011;49409;55.708;37.522;2022-07-21T05:09:06;2.85;;;1.70;;
63284;SDS011;49409;55.708;37.522;2022-07-21T05:11:32;3.92;;;1.70;;
63284;SDS011;49409;55.708;37.522;2022-07-21T05:13:57;3.20;;;1.90;;
63284;SDS011;49409;55.708;37.522;2022-07-21T05:16:23;2.47;;;1.58;;
63284;SDS011;49409;55.708;37.522;2022-07-21T05:18:49;1.95;;;1.50;;
63284;SDS011;49409;55.708;37.522;2022-07-21T05:21:14;2.40;;;1.67;;
63284;SDS011;49409;55.708;37.522;2022-07-21T05:23:40;2.42;;;1.60;;
63284;SDS011;49409;55.708;37.522;2022-07-21T05:26:05;2.97;;;1.70;;
63284;SDS011;49409;55.708;37.522;2022-07-21T05:28:31;3.33;;;1.77;;
63284;SDS011;49409;55.708;37.522;2022-07-21T05:30:56;4.70;;;1.60;;
63284;SDS011;49409;55.708;37.522;2022-07-21T05:33:22;3.22;;;1.88;;
63284;SDS011;49409;55.708;37.522;2022-07-21T05:35:47;5.28;;;1.80;;
63284;SDS011;49409;55.708;37.522;2022-07-21T05:38:13;2.90;;;1.90;;
63284;SDS011;49409;55.708;37.522;2022-07-21T05:40:39;4.10;;;1.75;;
63284;SDS011;49409;55.708;37.522;2022-07-21T05:43:05;2.78;;;1.60;;
63284;SDS011;49409;55.708;37.522;2022-07-21T05:45:30;2.92;;;1.40;;
63284;SDS011;49409;55.708;37.522;2022-07-21T05:47:56;3.13;;;1.45;;
63284;SDS011;49409;55.708;37.522;2022-07-21T05:50:21;1.80;;;1.50;;
63284;SDS011;49409;55.708;37.522;2022-07-21T05:52:47;3.17;;;2.00;;
63284;SDS011;49409;55.708;37.522;2022-07-21T05:55:13;1.83;;;1.48;;
63284;SDS011;49409;55.708;37.522;2022-07-21T05:57:38;2.40;;;1.67;;
63284;SDS011;49409;55.708;37.522;2022-07-21T06:00:04;2.60;;;2.15;;
63284;SDS011;49409;55.708;37.522;2022-07-21T06:02:31;2.45;;;1.35;;
63284;SDS011;49409;55.708;37.522;2022-07-21T06:04:57;1.92;;;1.48;;
63284;SDS011;49409;55.708;37.522;2022-07-21T06:07:23;2.38;;;1.80;;
63284;SDS011;49409;55.708;37.522;2022-07-21T06:09:49;3.17;;;1.88;;
63284;SDS011;49409;55.708;37.522;2022-07-21T06:12:14;3.05;;;1.80;;
63284;SDS011;49409;55.708;37.522;2022-07-21T06:14:40;2.08;;;1.80;;
63284;SDS011;49409;55.708;37.522;2022-07-21T06:17:05;2.05;;;1.70;;
63284;SDS011;49409;55.708;37.522;2022-07-21T06:19:31;2.70;;;1.80;;
63284;SDS011;49409;55.708;37.522;2022-07-21T06:21:57;1.98;;;1.70;;
63284;SDS011;49409;55.708;37.522;2022-07-21T06:24:22;3.33;;;1.77;;
63284;SDS011;49409;55.708;37.522;2022-07-21T06:26:48;2.40;;;1.60;;
63284;SDS011;49409;55.708;37.522;2022-07-21T06:29:14;3.70;;;1.73;;
63284;SDS011;49409;55.708;37.522;2022-07-21T06:31:40;2.33;;;1.50;;
63284;SDS011;49409;55.708;37.522;2022-07-21T06:34:05;2.53;;;1.60;;
63284;SDS011;49409;55.708;37.522;2022-07-21T06:36:31;3.42;;;1.80;;
63284;SDS011;49409;55.708;37.522;2022-07-21T06:38:57;2.47;;;1.48;;
63284;SDS011;49409;55.708;37.522;2022-07-21T06:41:23;4.28;;;1.80;;
63284;SDS011;49409;55.708;37.522;2022-07-21T06:43:48;2.80;;;1.70;;
63284;SDS011;49409;55.708;37.522;2022-07-21T06:46:14;2.22;;;1.58;;
63284;SDS011;49409;55.708;37.522;2022-07-21T06:48:39;1.83;;;1.45;;
63284;SDS011;49409;55.708;37.522;2022-07-21T06:51:05;3.45;;;1.40;;
63284;SDS011;49409;55.708;37.522;2022-07-21T06:53:30;3.78;;;1.60;;
63284;SDS011;49409;55.708;37.522;2022-07-21T06:55:56;2.90;;;1.75;;
63284;SDS011;49409;55.708;37.522;2022-07-21T06:58:22;2.50;;;1.40;;
63284;SDS011;49409;55.708;37.522;2022-07-21T07:00:50;3.35;;;1.45;;
63284;SDS011;49409;55.708;37.522;2022-07-21T07:03:19;2.55;;;1.45;;
63284;SDS011;49409;55.708;37.522;2022-07-21T07:05:46;4.35;;;1.70;;
63284;SDS011;49409;55.708;37.522;2022-07-21T07:08:12;3.00;;;1.40;;
63284;SDS011;49409;55.708;37.522;2022-07-21T07:10:39;2.92;;;1.42;;
63284;SDS011;49409;55.708;37.522;2022-07-21T07:13:05;3.58;;;1.80;;
63284;SDS011;49409;55.708;37.522;2022-07-21T07:15:31;2.58;;;1.60;;
63284;SDS011;49409;55.708;37.522;2022-07-21T07:17:57;2.15;;;1.42;;
63284;SDS011;49409;55.708;37.522;2022-07-21T07:20:22;3.00;;;1.58;;
63284;SDS011;49409;55.708;37.522;2022-07-21T07:22:48;1.73;;;1.58;;
63284;SDS011;49409;55.708;37.522;2022-07-21T07:25:14;2.28;;;1.42;;
63284;SDS011;49409;55.708;37.522;2022-07-21T07:27:43;2.67;;;1.40;;
63284;SDS011;49409;55.708;37.522;2022-07-21T07:30:13;2.17;;;1.15;;
63284;SDS011;49409;55.708;37.522;2022-07-21T07:32:39;1.27;;;1.13;;
63284;SDS011;49409;55.708;37.522;2022-07-21T07:35:05;2.20;;;1.65;;
63284;SDS011;49409;55.708;37.522;2022-07-21T07:37:38;2.00;;;1.38;;
63284;SDS011;49409;55.708;37.522;2022-07-21T07:40:06;2.15;;;1.40;;
63284;SDS011;49409;55.708;37.522;2022-07-21T07:42:34;1.77;;;1.45;;
63284;SDS011;49409;55.708;37.522;2022-07-21T07:45:01;3.00;;;1.80;;
63284;SDS011;49409;55.708;37.522;2022-07-21T07:47:26;2.47;;;1.50;;
63284;SDS011;49409;55.708;37.522;2022-07-21T07:49:52;2.90;;;1.30;;
63284;SDS011;49409;55.708;37.522;2022-07-21T07:52:21;2.90;;;1.48;;
63284;SDS011;49409;55.708;37.522;2022-07-21T07:54:47;3.20;;;1.90;;
63284;SDS011;49409;55.708;37.522;2022-07-21T07:57:13;3.40;;;1.50;;
63284;SDS011;49409;55.708;37.522;2022-07-21T07:59:38;3.22;;;1.75;;
63284;SDS011;49409;55.708;37.522;2022-07-21T08:02:04;2.45;;;1.48;;
63284;SDS011;49409;55.708;37.522;2022-07-21T08:04:29;1.77;;;1.52;;
63284;SDS011;49409;55.708;37.522;2022-07-21T08:06:55;5.10;;;1.75;;
63284;SDS011;49409;55.708;37.522;2022-07-21T08:09:21;2.53;;;1.52;;
63284;SDS011;49409;55.708;37.522;2022-07-21T08:11:46;2.67;;;1.65;;
63284;SDS011;49409;55.708;37.522;2022-07-21T08:14:13;3.28;;;1.60;;
63284;SDS011;49409;55.708;37.522;2022-07-21T08:16:39;3.25;;;1.30;;
63284;SDS011;49409;55.708;37.522;2022-07-21T08:19:05;3.90;;;1.80;;
63284;SDS011;49409;55.708;37.522;2022-07-21T08:21:31;3.10;;;1.55;;
63284;SDS011;49409;55.708;37.522;2022-07-21T08:23:58;4.85;;;2.05;;
63284;SDS011;49409;55.708;37.522;2022-07-21T08:26:25;4.43;;;2.13;;
63284;SDS011;49409;55.708;37.522;2022-07-21T08:28:52;5.82;;;2.22;;
63284;SDS011;49409;55.708;37.522;2022-07-21T08:31:21;5.57;;;2.87;;
63284;SDS011;49409;55.708;37.522;2022-07-21T08:33:48;4.18;;;2.05;;
63284;SDS011;49409;55.708;37.522;2022-07-21T08:36:15;5.47;;;2.30;;
63284;SDS011;49409;55.708;37.522;2022-07-21T08:38:40;5.55;;;2.40;;
63284;SDS011;49409;55.708;37.522;2022-07-21T08:41:06;6.85;;;2.95;;
63284;SDS011;49409;55.708;37.522;2022-07-21T08:43:33;5.80;;;2.72;;
63284;SDS011;49409;55.708;37.522;2022-07-21T08:45:59;5.43;;;2.60;;
63284;SDS011;49409;55.708;37.522;2022-07-21T08:48:25;6.80;;;2.70;;
63284;SDS011;49409;55.708;37.522;2022-07-21T08:50:54;6.90;;;2.75;;
63284;SDS011;49409;55.708;37.522;2022-07-21T08:53:20;5.85;;;2.95;;
63284;SDS011;49409;55.708;37.522;2022-07-21T08:55:47;5.40;;;2.72;;
63284;SDS011;49409;55.708;37.522;2022-07-21T08:58:12;5.10;;;2.72;;
63284;SDS011;49409;55.708;37.522;2022-07-21T09:00:40;4.88;;;2.88;;
63284;SDS011;49409;55.708;37.522;2022-07-21T09:08:30;5.43;;;2.78;;
63284;SDS011;49409;55.708;37.522;2022-07-21T09:11:07;4.95;;;2.40;;
63284;SDS011;49409;55.708;37.522;2022-07-21T09:13:36;5.32;;;2.60;;
63284;SDS011;49409;55.708;37.522;2022-07-21T09:16:03;4.85;;;2.47;;
63284;SDS011;49409;55.708;37.522;2022-07-21T09:18:29;3.00;;;2.10;;
63284;SDS011;49409;55.708;37.522;2022-07-21T09:20:54;3.97;;;2.15;;
63284;SDS011;49409;55.708;37.522;2022-07-21T09:23:21;5.43;;;2.25;;
63284;SDS011;49409;55.708;37.522;2022-07-21T09:25:55;2.83;;;1.55;;
63284;SDS011;49409;55.708;37.522;2022-07-21T09:28:25;2.17;;;1.70;;
63284;SDS011;49409;55.708;37.522;2022-07-21T09:33:18;3.42;;;1.80;;
63284;SDS011;49409;55.708;37.522;2022-07-21T09:38:50;2.30;;;1.55;;
63284;SDS011;49409;55.708;37.522;2022-07-21T09:41:22;2.13;;;1.40;;
63284;SDS011;49409;55.708;37.522;2022-07-21T09:43:49;1.75;;;1.15;;
63284;SDS011;49409;55.708;37.522;2022-07-21T09:46:20;2.10;;;1.02;;
63284;SDS011;49409;55.708;37.522;2022-07-21T09:48:46;2.28;;;1.30;;
63284;SDS011;49409;55.708;37.522;2022-07-21T09:56:32;1.88;;;1.17;;
63284;SDS011;49409;55.708;37.522;2022-07-21T09:58:59;2.53;;;1.65;;
63284;SDS011;49409;55.708;37.522;2022-07-21T10:01:27;2.10;;;1.55;;
63284;SDS011;49409;55.708;37.522;2022-07-21T10:03:54;3.03;;;1.85;;
63284;SDS011;49409;55.708;37.522;2022-07-21T10:06:25;2.22;;;1.52;;
63284;SDS011;49409;55.708;37.522;2022-07-21T10:08:56;3.22;;;1.27;;
63284;SDS011;49409;55.708;37.522;2022-07-21T10:11:23;2.30;;;1.50;;
63284;SDS011;49409;55.708;37.522;2022-07-21T10:13:50;1.58;;;1.08;;
63284;SDS011;49409;55.708;37.522;2022-07-21T10:16:16;1.73;;;1.25;;
63284;SDS011;49409;55.708;37.522;2022-07-21T10:24:11;1.48;;;1.27;;
63284;SDS011;49409;55.708;37.522;2022-07-21T10:26:38;1.92;;;1.40;;
63284;SDS011;49409;55.708;37.522;2022-07-21T10:32:14;1.50;;;1.15;;
63284;SDS011;49409;55.708;37.522;2022-07-21T10:34:41;2.90;;;1.50;;
63284;SDS011;49409;55.708;37.522;2022-07-21T10:37:10;2.67;;;1.48;;
63284;SDS011;49409;55.708;37.522;2022-07-21T10:39:36;1.70;;;1.42;;
63284;SDS011;49409;55.708;37.522;2022-07-21T10:42:16;1.30;;;1.15;;
63284;SDS011;49409;55.708;37.522;2022-07-21T10:44:43;2.22;;;1.60;;
63284;SDS011;49409;55.708;37.522;2022-07-21T10:47:11;2.63;;;1.70;;
63284;SDS011;49409;55.708;37.522;2022-07-21T10:49:52;2.55;;;1.58;;
63284;SDS011;49409;55.708;37.522;2022-07-21T11:00:50;1.35;;;1.25;;
63284;SDS011;49409;55.708;37.522;2022-07-21T11:06:31;2.55;;;1.30;;
63284;SDS011;49409;55.708;37.522;2022-07-21T11:11:30;2.92;;;1.58;;
63284;SDS011;49409;55.708;37.522;2022-07-21T11:13:58;1.83;;;1.38;;
63284;SDS011;49409;55.708;37.522;2022-07-21T11:22:00;1.75;;;1.27;;
63284;SDS011;49409;55.708;37.522;2022-07-21T11:24:31;2.03;;;1.50;;
63284;SDS011;49409;55.708;37.522;2022-07-21T11:29:32;2.45;;;1.45;;
63284;SDS011;49409;55.708;37.522;2022-07-21T11:31:58;2.00;;;1.80;;
63284;SDS011;49409;55.708;37.522;2022-07-21T11:34:36;3.38;;;1.55;;
63284;SDS011;49409;55.708;37.522;2022-07-21T11:37:04;2.33;;;1.42;;
63284;SDS011;49409;55.708;37.522;2022-07-21T11:39:30;2.25;;;1.50;;
63284;SDS011;49409;55.708;37.522;2022-07-21T11:42:01;1.75;;;1.40;;
63284;SDS011;49409;55.708;37.522;2022-07-21T11:44:31;3.00;;;1.67;;
63284;SDS011;49409;55.708;37.522;2022-07-21T11:47:00;2.40;;;1.63;;
63284;SDS011;49409;55.708;37.522;2022-07-21T11:49:27;2.10;;;1.75;;
63284;SDS011;49409;55.708;37.522;2022-07-21T11:52:00;4.45;;;1.48;;
63284;SDS011;49409;55.708;37.522;2022-07-21T11:54:32;2.47;;;1.80;;
63284;SDS011;49409;55.708;37.522;2022-07-21T11:57:04;2.90;;;1.65;;
63284;SDS011;49409;55.708;37.522;2022-07-21T11:59:32;1.98;;;0.98;;
63284;SDS011;49409;55.708;37.522;2022-07-21T12:02:12;1.88;;;1.35;;
63284;SDS011;49409;55.708;37.522;2022-07-21T12:04:46;1.50;;;1.40;;
63284;SDS011;49409;55.708;37.522;2022-07-21T12:10:10;1.35;;;1.20;;
63284;SDS011;49409;55.708;37.522;2022-07-21T12:12:45;3.00;;;1.67;;
63284;SDS011;49409;55.708;37.522;2022-07-21T12:17:41;4.70;;;1.50;;
63284;SDS011;49409;55.708;37.522;2022-07-21T12:20:10;2.33;;;1.90;;
63284;SDS011;49409;55.708;37.522;2022-07-21T12:22:43;1.55;;;1.33;;
63284;SDS011;49409;55.708;37.522;2022-07-21T12:25:12;3.03;;;1.58;;
63284;SDS011;49409;55.708;37.522;2022-07-21T12:27:40;3.90;;;1.70;;
63284;SDS011;49409;55.708;37.522;2022-07-21T12:30:09;1.92;;;1.48;;
63284;SDS011;49409;55.708;37.522;2022-07-21T12:32:54;1.77;;;1.30;;
63284;SDS011;49409;55.708;37.522;2022-07-21T12:35:26;1.40;;;1.15;;
63284;SDS011;49409;55.708;37.522;2022-07-21T12:37:53;2.08;;;1.50;;
63284;SDS011;49409;55.708;37.522;2022-07-21T12:40:22;2.75;;;1.65;;
63284;SDS011;49409;55.708;37.522;2022-07-21T12:42:48;2.10;;;1.50;;
63284;SDS011;49409;55.708;37.522;2022-07-21T12:47:41;4.65;;;1.30;;
63284;SDS011;49409;55.708;37.522;2022-07-21T12:50:08;1.42;;;1.30;;
63284;SDS011;49409;55.708;37.522;2022-07-21T12:52:39;2.22;;;1.65;;
63284;SDS011;49409;55.708;37.522;2022-07-21T12:55:05;1.65;;;1.50;;
63284;SDS011;49409;55.708;37.522;2022-07-21T12:57:32;1.88;;;1.38;;
63284;SDS011;49409;55.708;37.522;2022-07-21T12:59:59;2.95;;;1.58;;
63284;SDS011;49409;55.708;37.522;2022-07-21T13:02:25;1.83;;;1.67;;
63284;SDS011;49409;55.708;37.522;2022-07-21T13:04:52;2.08;;;1.58;;
63284;SDS011;49409;55.708;37.522;2022-07-21T13:07:18;2.20;;;1.50;;
63284;SDS011;49409;55.708;37.522;2022-07-21T13:09:44;2.45;;;1.60;;
63284;SDS011;49409;55.708;37.522;2022-07-21T13:12:13;3.15;;;1.75;;
63284;SDS011;49409;55.708;37.522;2022-07-21T13:14:39;2.78;;;1.60;;
63284;SDS011;49409;55.708;37.522;2022-07-21T13:17:05;2.60;;;1.30;;
63284;SDS011;49409;55.708;37.522;2022-07-21T13:19:32;2.03;;;1.50;;
63284;SDS011;49409;55.708;37.522;2022-07-21T13:22:00;2.15;;;1.50;;
63284;SDS011;49409;55.708;37.522;2022-07-21T13:24:27;3.95;;;1.58;;
63284;SDS011;49409;55.708;37.522;2022-07-21T13:26:52;2.53;;;1.40;;
63284;SDS011;49409;55.708;37.522;2022-07-21T13:29:18;3.92;;;1.50;;
63284;SDS011;49409;55.708;37.522;2022-07-21T13:31:43;1.52;;;1.42;;
63284;SDS011;49409;55.708;37.522;2022-07-21T13:34:09;2.55;;;1.60;;
63284;SDS011;49409;55.708;37.522;2022-07-21T13:36:35;2.72;;;1.88;;
63284;SDS011;49409;55.708;37.522;2022-07-21T13:39:01;3.72;;;1.52;;
63284;SDS011;49409;55.708;37.522;2022-07-21T13:41:28;2.92;;;1.70;;
63284;SDS011;49409;55.708;37.522;2022-07-21T13:43:55;2.47;;;1.60;;
63284;SDS011;49409;55.708;37.522;2022-07-21T13:46:21;3.92;;;1.90;;
63284;SDS011;49409;55.708;37.522;2022-07-21T13:48:46;2.28;;;1.80;;
63284;SDS011;49409;55.708;37.522;2022-07-21T13:51:12;2.17;;;1.70;;
63284;SDS011;49409;55.708;37.522;2022-07-21T13:53:39;2.92;;;1.85;;
63284;SDS011;49409;55.708;37.522;2022-07-21T13:56:05;2.60;;;1.80;;
63284;SDS011;49409;55.708;37.522;2022-07-21T13:58:31;3.03;;;1.60;;
63284;SDS011;49409;55.708;37.522;2022-07-21T14:00:57;3.90;;;2.38;;
63284;SDS011;49409;55.708;37.522;2022-07-21T14:03:23;3.20;;;1.95;;
63284;SDS011;49409;55.708;37.522;2022-07-21T14:05:49;2.85;;;1.95;;
63284;SDS011;49409;55.708;37.522;2022-07-21T14:08:15;5.15;;;2.38;;
63284;SDS011;49409;55.708;37.522;2022-07-21T14:10:40;3.67;;;2.30;;
63284;SDS011;49409;55.708;37.522;2022-07-21T14:13:06;4.80;;;2.30;;
63284;SDS011;49409;55.708;37.522;2022-07-21T14:15:32;2.83;;;2.15;;
63284;SDS011;49409;55.708;37.522;2022-07-21T14:17:57;4.97;;;2.72;;
63284;SDS011;49409;55.708;37.522;2022-07-21T14:20:23;5.10;;;2.50;;
63284;SDS011;49409;55.708;37.522;2022-07-21T14:22:49;6.55;;;2.38;;
63284;SDS011;49409;55.708;37.522;2022-07-21T14:25:14;5.03;;;2.10;;
63284;SDS011;49409;55.708;37.522;2022-07-21T14:27:43;5.00;;;2.53;;
63284;SDS011;49409;55.708;37.522;2022-07-21T14:30:09;3.17;;;2.22;;
63284;SDS011;49409;55.708;37.522;2022-07-21T14:32:35;2.92;;;1.90;;
63284;SDS011;49409;55.708;37.522;2022-07-21T14:35:01;3.28;;;1.75;;
63284;SDS011;49409;55.708;37.522;2022-07-21T14:37:26;2.10;;;1.60;;
63284;SDS011;49409;55.708;37.522;2022-07-21T14:39:52;3.53;;;1.60;;
63284;SDS011;49409;55.708;37.522;2022-07-21T14:42:17;2.95;;;1.67;;
63284;SDS011;49409;55.708;37.522;2022-07-21T14:44:43;5.38;;;1.70;;
63284;SDS011;49409;55.708;37.522;2022-07-21T14:47:10;2.03;;;1.60;;
63284;SDS011;49409;55.708;37.522;2022-07-21T14:49:37;3.72;;;1.65;;
63284;SDS011;49409;55.708;37.522;2022-07-21T14:52:03;2.30;;;1.60;;
63284;SDS011;49409;55.708;37.522;2022-07-21T14:54:29;4.18;;;1.77;;
63284;SDS011;49409;55.708;37.522;2022-07-21T14:56:55;2.05;;;1.70;;
63284;SDS011;49409;55.708;37.522;2022-07-21T14:59:20;4.65;;;1.70;;
63284;SDS011;49409;55.708;37.522;2022-07-21T15:01:46;4.03;;;1.60;;
63284;SDS011;49409;55.708;37.522;2022-07-21T15:04:11;2.53;;;1.48;;
63284;SDS011;49409;55.708;37.522;2022-07-21T15:06:37;1.75;;;1.50;;
63284;SDS011;49409;55.708;37.522;2022-07-21T15:09:02;4.28;;;1.55;;
63284;SDS011;49409;55.708;37.522;2022-07-21T15:11:28;1.90;;;1.48;;
63284;SDS011;49409;55.708;37.522;2022-07-21T15:13:54;4.47;;;1.90;;
63284;SDS011;49409;55.708;37.522;2022-07-21T15:16:19;2.95;;;1.48;;
63284;SDS011;49409;55.708;37.522;2022-07-21T15:18:45;2.60;;;1.25;;
63284;SDS011;49409;55.708;37.522;2022-07-21T15:21:11;1.63;;;1.00;;
63284;SDS011;49409;55.708;37.522;2022-07-21T15:23:37;3.67;;;1.65;;
63284;SDS011;49409;55.708;37.522;2022-07-21T15:26:02;1.63;;;1.27;;